createdAt,value
2019-01-31T00:00:29.395Z,0.00
2019-01-31T00:01:29.372Z,0.00
2019-01-31T00:02:29.362Z,0.00
2019-01-31T00:03:29.347Z,0.00
2019-01-31T00:04:29.335Z,0.00
2019-01-31T00:05:29.322Z,0.00
2019-01-31T00:06:29.307Z,0.00
2019-01-31T00:07:29.301Z,0.00
2019-01-31T00:08:29.283Z,0.00
2019-01-31T00:09:29.265Z,0.00
2019-01-31T00:10:29.260Z,0.00
2019-01-31T00:11:29.237Z,0.00
2019-01-31T00:12:29.228Z,0.00
2019-01-31T00:13:29.213Z,0.00
2019-01-31T00:14:29.197Z,0.00
2019-01-31T00:15:29.188Z,0.00
2019-01-31T00:16:29.176Z,0.00
2019-01-31T00:17:29.164Z,0.00
2019-01-31T00:18:29.146Z,0.00
2019-01-31T00:19:29.131Z,0.00
2019-01-31T00:20:29.138Z,0.00
2019-01-31T00:21:29.106Z,0.00
2019-01-31T00:22:29.093Z,0.00
2019-01-31T00:23:29.080Z,0.00
2019-01-31T00:24:29.066Z,0.00
2019-01-31T00:25:29.055Z,0.00
2019-01-31T00:26:29.039Z,0.00
2019-01-31T00:27:29.022Z,0.00
2019-01-31T00:28:29.013Z,0.00
2019-01-31T00:29:28.998Z,0.00
2019-01-31T00:30:28.986Z,0.00
2019-01-31T00:31:28.969Z,0.00
2019-01-31T00:32:28.960Z,0.00
2019-01-31T00:33:28.941Z,0.00
2019-01-31T00:34:28.931Z,0.00
2019-01-31T00:35:28.916Z,0.00
2019-01-31T00:36:28.909Z,0.00
2019-01-31T00:37:28.893Z,0.00
2019-01-31T00:38:28.877Z,0.00
2019-01-31T00:39:28.869Z,0.00
2019-01-31T00:40:28.846Z,0.00
2019-01-31T00:41:28.834Z,0.00
2019-01-31T00:42:28.818Z,0.00
2019-01-31T00:43:28.812Z,0.00
2019-01-31T00:44:28.795Z,0.00
2019-01-31T00:45:28.783Z,0.00
2019-01-31T00:46:28.769Z,0.00
2019-01-31T00:47:28.756Z,0.00
2019-01-31T00:48:28.746Z,0.00
2019-01-31T00:49:28.724Z,0.00
2019-01-31T00:50:28.712Z,0.00
2019-01-31T00:51:28.699Z,0.00
2019-01-31T00:52:28.683Z,0.00
2019-01-31T00:53:28.678Z,0.00
2019-01-31T00:54:28.659Z,0.00
2019-01-31T00:55:28.645Z,0.00
2019-01-31T00:56:28.628Z,0.00
2019-01-31T00:57:28.622Z,0.00
2019-01-31T00:58:28.605Z,0.00
2019-01-31T00:59:28.687Z,0.00
2019-01-31T01:00:28.580Z,0.00
2019-01-31T01:01:28.564Z,0.00
2019-01-31T01:02:28.560Z,0.00
2019-01-31T01:03:28.538Z,0.00
2019-01-31T01:04:28.529Z,0.00
2019-01-31T01:05:28.511Z,0.00
2019-01-31T01:06:28.496Z,0.00
2019-01-31T01:07:28.481Z,0.00
2019-01-31T01:08:28.470Z,0.00
2019-01-31T01:09:28.460Z,0.00
2019-01-31T01:10:28.442Z,0.00
2019-01-31T01:11:28.430Z,0.00
2019-01-31T01:12:28.417Z,0.00
2019-01-31T01:13:28.405Z,0.00
2019-01-31T01:14:28.393Z,0.00
2019-01-31T01:15:28.374Z,0.00
2019-01-31T01:16:28.366Z,0.00
2019-01-31T01:17:29.107Z,0.00
2019-01-31T01:18:28.344Z,0.00
2019-01-31T01:19:28.323Z,0.00
2019-01-31T01:20:28.315Z,0.00
2019-01-31T01:21:28.296Z,0.00
2019-01-31T01:22:28.391Z,0.00
2019-01-31T01:23:28.265Z,0.00
2019-01-31T01:24:28.255Z,0.00
2019-01-31T01:25:28.241Z,0.00
2019-01-31T01:26:28.231Z,0.00
2019-01-31T01:27:28.214Z,0.00
2019-01-31T01:28:28.202Z,0.00
2019-01-31T01:29:28.189Z,0.00
2019-01-31T01:30:28.176Z,0.00
2019-01-31T01:31:28.165Z,0.00
2019-01-31T01:32:28.147Z,0.00
2019-01-31T01:33:28.134Z,0.00
2019-01-31T01:34:28.122Z,0.00
2019-01-31T01:35:28.111Z,0.00
2019-01-31T01:36:28.098Z,0.00
2019-01-31T01:37:28.081Z,0.00
2019-01-31T01:38:28.066Z,0.00
2019-01-31T01:39:28.059Z,0.00
2019-01-31T01:40:28.040Z,0.00
2019-01-31T01:41:28.027Z,0.00
2019-01-31T01:42:28.020Z,0.00
2019-01-31T01:43:27.999Z,0.00
2019-01-31T01:44:27.989Z,0.00
2019-01-31T01:45:27.971Z,0.00
2019-01-31T01:46:27.964Z,0.00
2019-01-31T01:47:27.946Z,0.00
2019-01-31T01:48:27.933Z,0.00
2019-01-31T01:49:27.919Z,0.00
2019-01-31T01:50:27.909Z,0.00
2019-01-31T01:51:27.900Z,0.00
2019-01-31T01:52:27.877Z,0.00
2019-01-31T01:53:27.870Z,0.00
2019-01-31T01:54:27.858Z,0.00
2019-01-31T01:55:27.842Z,0.00
2019-01-31T01:56:27.825Z,0.00
2019-01-31T01:57:27.813Z,0.47
2019-01-31T01:58:27.797Z,0.95
2019-01-31T01:59:27.785Z,1.42
2019-01-31T02:00:27.774Z,1.23
2019-01-31T02:01:27.759Z,1.42
2019-01-31T02:02:27.745Z,3.50
2019-01-31T02:03:27.732Z,3.31
2019-01-31T02:04:27.716Z,3.59
2019-01-31T02:05:27.701Z,3.78
2019-01-31T02:06:27.691Z,4.73
2019-01-31T02:07:27.675Z,4.35
2019-01-31T02:08:27.666Z,4.63
2019-01-31T02:09:30.330Z,5.49
2019-01-31T02:10:27.640Z,5.96
2019-01-31T02:11:27.626Z,7.28
2019-01-31T02:12:27.615Z,6.34
2019-01-31T02:13:27.598Z,7.85
2019-01-31T02:14:27.580Z,7.57
2019-01-31T02:15:27.569Z,7.00
2019-01-31T02:16:27.561Z,7.28
2019-01-31T02:17:27.544Z,8.14
2019-01-31T02:18:27.530Z,8.51
2019-01-31T02:19:27.515Z,8.42
2019-01-31T02:20:27.499Z,8.51
2019-01-31T02:21:27.486Z,9.46
2019-01-31T02:22:27.475Z,9.93
2019-01-31T02:23:27.460Z,10.12
2019-01-31T02:24:27.451Z,10.60
2019-01-31T02:25:27.433Z,10.03
2019-01-31T02:26:27.423Z,9.36
2019-01-31T02:27:27.408Z,10.41
2019-01-31T02:28:27.391Z,9.65
2019-01-31T02:29:27.380Z,8.42
2019-01-31T02:30:27.370Z,8.89
2019-01-31T02:31:27.353Z,8.42
2019-01-31T02:32:27.337Z,9.65
2019-01-31T02:33:27.327Z,10.31
2019-01-31T02:34:27.312Z,9.17
2019-01-31T02:35:27.299Z,8.80
2019-01-31T02:36:27.292Z,9.27
2019-01-31T02:37:27.274Z,8.14
2019-01-31T02:38:27.262Z,8.23
2019-01-31T02:39:27.255Z,7.66
2019-01-31T02:40:27.235Z,7.76
2019-01-31T02:41:27.216Z,10.03
2019-01-31T02:42:27.206Z,8.33
2019-01-31T02:43:27.189Z,7.28
2019-01-31T02:44:27.180Z,6.81
2019-01-31T02:45:27.166Z,6.62
2019-01-31T02:46:27.146Z,8.23
2019-01-31T02:47:27.144Z,7.47
2019-01-31T02:48:27.120Z,7.19
2019-01-31T02:49:27.106Z,7.28
2019-01-31T02:50:27.099Z,6.43
2019-01-31T02:51:27.085Z,7.57
2019-01-31T02:52:27.073Z,7.76
2019-01-31T02:53:27.054Z,7.47
2019-01-31T02:54:27.045Z,9.55
2019-01-31T02:55:27.026Z,7.38
2019-01-31T02:56:27.015Z,7.19
2019-01-31T02:57:27.003Z,6.81
2019-01-31T02:58:26.991Z,7.57
2019-01-31T02:59:26.979Z,8.98
2019-01-31T03:00:26.955Z,7.38
2019-01-31T03:01:26.942Z,6.34
2019-01-31T03:02:26.938Z,5.68
2019-01-31T03:03:26.919Z,6.05
2019-01-31T03:04:26.905Z,6.71
2019-01-31T03:05:26.896Z,7.76
2019-01-31T03:06:26.879Z,9.17
2019-01-31T03:07:26.870Z,9.27
2019-01-31T03:08:26.854Z,7.95
2019-01-31T03:09:26.841Z,7.85
2019-01-31T03:10:26.824Z,8.23
2019-01-31T03:11:26.812Z,8.33
2019-01-31T03:12:26.800Z,8.51
2019-01-31T03:13:26.786Z,10.31
2019-01-31T03:14:26.769Z,9.93
2019-01-31T03:15:26.763Z,11.07
2019-01-31T03:16:26.745Z,10.78
2019-01-31T03:17:26.734Z,11.54
2019-01-31T03:18:26.718Z,11.16
2019-01-31T03:19:26.704Z,10.41
2019-01-31T03:20:26.688Z,10.41
2019-01-31T03:21:26.673Z,10.69
2019-01-31T03:22:26.657Z,12.11
2019-01-31T03:23:26.644Z,12.20
2019-01-31T03:24:26.632Z,11.44
2019-01-31T03:25:26.625Z,12.77
2019-01-31T03:26:26.629Z,11.73
2019-01-31T03:27:26.605Z,12.11
2019-01-31T03:28:26.583Z,11.82
2019-01-31T03:29:26.567Z,12.96
2019-01-31T03:30:26.553Z,11.54
2019-01-31T03:31:26.540Z,11.44
2019-01-31T03:32:26.533Z,11.44
2019-01-31T03:33:26.518Z,14.00
2019-01-31T03:34:26.505Z,14.19
2019-01-31T03:35:26.487Z,12.20
2019-01-31T03:36:26.477Z,14.00
2019-01-31T03:37:26.459Z,14.76
2019-01-31T03:38:26.445Z,14.66
2019-01-31T03:39:26.437Z,14.47
2019-01-31T03:40:26.422Z,11.92
2019-01-31T03:41:26.408Z,13.15
2019-01-31T03:42:26.401Z,12.68
2019-01-31T03:43:26.387Z,12.68
2019-01-31T03:44:26.399Z,13.15
2019-01-31T03:45:26.356Z,11.44
2019-01-31T03:46:26.341Z,12.77
2019-01-31T03:47:26.329Z,13.71
2019-01-31T03:48:26.314Z,14.76
2019-01-31T03:49:26.304Z,14.95
2019-01-31T03:50:26.291Z,15.14
2019-01-31T03:51:26.277Z,15.23
2019-01-31T03:52:26.257Z,15.99
2019-01-31T03:53:26.251Z,14.95
2019-01-31T03:54:26.239Z,13.62
2019-01-31T03:55:26.220Z,14.47
2019-01-31T03:56:26.207Z,12.20
2019-01-31T03:57:26.196Z,12.01
2019-01-31T03:58:26.184Z,13.62
2019-01-31T03:59:26.168Z,12.49
2019-01-31T04:00:26.159Z,11.44
2019-01-31T04:01:26.140Z,11.54
2019-01-31T04:02:26.129Z,12.39
2019-01-31T04:03:26.139Z,12.01
2019-01-31T04:04:26.098Z,14.47
2019-01-31T04:05:26.087Z,16.55
2019-01-31T04:06:26.073Z,16.36
2019-01-31T04:07:26.062Z,16.27
2019-01-31T04:08:26.052Z,17.97
2019-01-31T04:09:26.037Z,16.55
2019-01-31T04:10:26.023Z,17.88
2019-01-31T04:11:26.002Z,16.74
2019-01-31T04:12:26.002Z,15.42
2019-01-31T04:13:25.980Z,16.55
2019-01-31T04:14:27.394Z,14.38
2019-01-31T04:15:25.954Z,12.11
2019-01-31T04:16:25.945Z,10.97
2019-01-31T04:17:25.928Z,14.09
2019-01-31T04:18:25.912Z,11.44
2019-01-31T04:19:25.905Z,14.38
2019-01-31T04:20:25.886Z,16.46
2019-01-31T04:21:25.878Z,16.08
2019-01-31T04:22:25.862Z,16.36
2019-01-31T04:23:25.849Z,18.16
2019-01-31T04:24:25.837Z,16.55
2019-01-31T04:25:25.820Z,15.99
2019-01-31T04:26:25.809Z,14.19
2019-01-31T04:27:25.790Z,21.00
2019-01-31T04:28:25.782Z,21.76
2019-01-31T04:29:25.769Z,21.47
2019-01-31T04:30:25.754Z,18.73
2019-01-31T04:31:25.744Z,16.46
2019-01-31T04:32:25.724Z,17.79
2019-01-31T04:33:25.718Z,18.54
2019-01-31T04:34:25.693Z,20.81
2019-01-31T04:35:25.687Z,18.26
2019-01-31T04:36:25.673Z,17.41
2019-01-31T04:37:25.667Z,18.92
2019-01-31T04:38:25.653Z,21.00
2019-01-31T04:39:25.644Z,22.52
2019-01-31T04:40:31.380Z,17.69
2019-01-31T04:41:25.607Z,14.09
2019-01-31T04:42:25.598Z,15.80
2019-01-31T04:43:25.586Z,18.63
2019-01-31T04:44:25.566Z,19.87
2019-01-31T04:45:25.553Z,20.62
2019-01-31T04:46:25.536Z,18.16
2019-01-31T04:47:25.528Z,22.80
2019-01-31T04:48:25.519Z,22.89
2019-01-31T04:49:25.500Z,22.99
2019-01-31T04:50:25.485Z,22.61
2019-01-31T04:51:25.474Z,25.07
2019-01-31T04:52:32.140Z,20.34
2019-01-31T04:53:25.443Z,19.87
2019-01-31T04:54:25.433Z,22.04
2019-01-31T04:55:25.418Z,17.79
2019-01-31T04:56:25.405Z,21.85
2019-01-31T04:57:25.393Z,22.04
2019-01-31T04:58:25.380Z,19.58
2019-01-31T04:59:25.373Z,19.49
2019-01-31T05:00:25.348Z,17.88
2019-01-31T05:01:26.597Z,15.04
2019-01-31T05:02:25.322Z,16.46
2019-01-31T05:03:25.311Z,16.65
2019-01-31T05:04:25.302Z,15.99
2019-01-31T05:05:25.286Z,17.60
2019-01-31T05:06:25.274Z,14.09
2019-01-31T05:07:25.259Z,10.69
2019-01-31T05:08:25.245Z,12.58
2019-01-31T05:09:25.248Z,15.80
2019-01-31T05:10:25.217Z,20.62
2019-01-31T05:11:25.204Z,22.71
2019-01-31T05:12:25.192Z,23.08
2019-01-31T05:13:25.183Z,19.20
2019-01-31T05:14:25.176Z,19.20
2019-01-31T05:15:25.151Z,17.50
2019-01-31T05:16:25.137Z,19.39
2019-01-31T05:17:25.128Z,16.17
2019-01-31T05:18:25.114Z,15.99
2019-01-31T05:19:25.099Z,15.23
2019-01-31T05:20:25.084Z,17.12
2019-01-31T05:21:25.068Z,18.16
2019-01-31T05:22:25.054Z,17.50
2019-01-31T05:23:25.048Z,16.17
2019-01-31T05:24:25.037Z,16.36
2019-01-31T05:25:25.023Z,20.70
2019-01-31T05:26:25.006Z,22.03
2019-01-31T05:27:24.992Z,24.49
2019-01-31T05:28:24.976Z,24.30
2019-01-31T05:29:24.983Z,23.64
2019-01-31T05:30:24.948Z,21.37
2019-01-31T05:31:24.941Z,22.60
2019-01-31T05:32:24.924Z,23.35
2019-01-31T05:33:24.927Z,22.22
2019-01-31T05:34:24.916Z,23.35
2019-01-31T05:35:24.883Z,23.92
2019-01-31T05:36:24.873Z,21.94
2019-01-31T05:37:24.854Z,22.41
2019-01-31T05:38:24.846Z,21.75
2019-01-31T05:39:24.834Z,24.96
2019-01-31T05:40:24.824Z,26.28
2019-01-31T05:41:24.806Z,26.66
2019-01-31T05:42:24.900Z,21.65
2019-01-31T05:43:24.775Z,24.02
2019-01-31T05:44:24.760Z,25.43
2019-01-31T05:45:24.757Z,24.68
2019-01-31T05:46:24.740Z,20.14
2019-01-31T05:47:24.723Z,25.15
2019-01-31T05:48:24.711Z,25.71
2019-01-31T05:49:24.698Z,26.00
2019-01-31T05:50:24.678Z,26.09
2019-01-31T05:51:24.666Z,26.19
2019-01-31T05:52:24.654Z,22.78
2019-01-31T05:53:24.646Z,25.62
2019-01-31T05:54:24.632Z,20.89
2019-01-31T05:55:24.634Z,24.02
2019-01-31T05:56:24.600Z,27.98
2019-01-31T05:57:24.586Z,29.79
2019-01-31T05:58:24.576Z,26.47
2019-01-31T05:59:24.560Z,28.74
2019-01-31T06:00:24.554Z,31.58
2019-01-31T06:01:24.543Z,33.66
2019-01-31T06:02:24.521Z,34.23
2019-01-31T06:03:24.505Z,34.61
2019-01-31T06:04:24.495Z,31.10
2019-01-31T06:05:24.479Z,31.96
2019-01-31T06:06:24.471Z,33.47
2019-01-31T06:07:24.454Z,34.04
2019-01-31T06:08:24.436Z,33.94
2019-01-31T06:09:24.432Z,32.24
2019-01-31T06:10:24.410Z,30.91
2019-01-31T06:11:24.396Z,28.55
2019-01-31T06:12:24.385Z,27.42
2019-01-31T06:13:24.373Z,31.75
2019-01-31T06:14:24.374Z,29.41
2019-01-31T06:15:24.390Z,26.57
2019-01-31T06:16:24.330Z,28.36
2019-01-31T06:17:24.315Z,29.60
2019-01-31T06:18:24.308Z,23.92
2019-01-31T06:19:24.289Z,20.14
2019-01-31T06:20:24.279Z,14.94
2019-01-31T06:21:24.269Z,17.96
2019-01-31T06:22:25.107Z,14.56
2019-01-31T06:23:24.234Z,12.29
2019-01-31T06:24:24.222Z,9.92
2019-01-31T06:25:24.205Z,9.45
2019-01-31T06:26:24.197Z,12.85
2019-01-31T06:27:24.184Z,11.25
2019-01-31T06:28:24.170Z,12.76
2019-01-31T06:29:24.158Z,21.37
2019-01-31T06:30:24.143Z,24.96
2019-01-31T06:31:24.125Z,24.87
2019-01-31T06:32:24.112Z,17.77
2019-01-31T06:33:24.095Z,20.89
2019-01-31T06:34:24.089Z,22.78
2019-01-31T06:35:24.076Z,21.55
2019-01-31T06:36:24.058Z,19.76
2019-01-31T06:37:24.042Z,14.09
2019-01-31T06:38:24.033Z,19.38
2019-01-31T06:39:24.018Z,21.18
2019-01-31T06:40:24.004Z,14.75
2019-01-31T06:41:23.999Z,10.21
2019-01-31T06:42:23.975Z,10.59
2019-01-31T06:43:23.964Z,14.65
2019-01-31T06:44:23.947Z,16.26
2019-01-31T06:45:23.937Z,16.55
2019-01-31T06:46:23.917Z,11.91
2019-01-31T06:47:23.905Z,12.01
2019-01-31T06:48:23.892Z,13.99
2019-01-31T06:49:23.913Z,11.06
2019-01-31T06:50:23.868Z,10.59
2019-01-31T06:51:23.861Z,7.18
2019-01-31T06:52:23.841Z,5.67
2019-01-31T06:53:23.827Z,6.62
2019-01-31T06:54:23.808Z,14.09
2019-01-31T06:55:23.796Z,11.35
2019-01-31T06:56:23.783Z,13.79
2019-01-31T06:57:23.772Z,8.98
2019-01-31T06:58:23.755Z,7.65
2019-01-31T06:59:23.747Z,8.98
2019-01-31T07:00:23.729Z,5.20
2019-01-31T07:01:23.716Z,5.67
2019-01-31T07:02:23.699Z,4.63
2019-01-31T07:03:23.690Z,4.82
2019-01-31T07:04:23.676Z,3.59
2019-01-31T07:05:23.660Z,5.10
2019-01-31T07:06:23.644Z,5.77
2019-01-31T07:07:23.625Z,1.23
2019-01-31T07:08:23.614Z,1.70
2019-01-31T07:09:23.606Z,1.89
2019-01-31T07:10:23.589Z,0.94
2019-01-31T07:11:30.154Z,1.61
2019-01-31T07:12:23.558Z,1.61
2019-01-31T07:13:23.546Z,3.02
2019-01-31T07:14:23.537Z,4.25
2019-01-31T07:15:23.521Z,5.48
2019-01-31T07:16:23.503Z,4.25
2019-01-31T07:17:23.492Z,5.67
2019-01-31T07:18:23.477Z,7.75
2019-01-31T07:19:23.461Z,5.48
2019-01-31T07:20:23.447Z,4.16
2019-01-31T07:21:23.432Z,13.42
2019-01-31T07:22:23.424Z,11.05
2019-01-31T07:23:23.409Z,7.18
2019-01-31T07:24:23.394Z,7.28
2019-01-31T07:25:23.380Z,8.03
2019-01-31T07:26:23.362Z,8.60
2019-01-31T07:27:23.353Z,9.35
2019-01-31T07:28:23.341Z,14.74
2019-01-31T07:29:23.326Z,5.76
2019-01-31T07:30:23.315Z,5.76
2019-01-31T07:31:23.295Z,7.37
2019-01-31T07:32:23.281Z,12.66
2019-01-31T07:33:23.267Z,12.85
2019-01-31T07:34:23.251Z,11.43
2019-01-31T07:35:23.235Z,12.85
2019-01-31T07:36:23.223Z,13.42
2019-01-31T07:37:23.221Z,12.66
2019-01-31T07:38:23.200Z,12.95
2019-01-31T07:39:24.175Z,12.10
2019-01-31T07:40:23.684Z,12.85
2019-01-31T07:41:23.168Z,13.89
2019-01-31T07:42:23.140Z,12.85
2019-01-31T07:43:23.127Z,8.50
2019-01-31T07:44:23.115Z,11.05
2019-01-31T07:45:23.094Z,12.85
2019-01-31T07:46:23.087Z,13.60
2019-01-31T07:47:23.070Z,13.51
2019-01-31T07:48:23.057Z,17.58
2019-01-31T07:49:23.046Z,19.65
2019-01-31T07:50:23.027Z,14.84
2019-01-31T07:51:23.014Z,21.36
2019-01-31T07:52:23.000Z,16.72
2019-01-31T07:53:22.987Z,14.65
2019-01-31T07:54:22.973Z,26.56
2019-01-31T07:55:22.965Z,18.43
2019-01-31T07:56:22.940Z,26.37
2019-01-31T07:57:22.932Z,22.02
2019-01-31T07:58:22.916Z,19.94
2019-01-31T07:59:22.906Z,19.18
2019-01-31T08:00:22.885Z,16.17
2019-01-31T08:01:22.875Z,16.07
2019-01-31T08:02:22.859Z,17.40
2019-01-31T08:03:22.846Z,21.64
2019-01-31T08:04:22.834Z,21.46
2019-01-31T08:05:22.821Z,22.02
2019-01-31T08:06:22.808Z,20.42
2019-01-31T08:07:22.792Z,16.26
2019-01-31T08:08:22.776Z,19.67
2019-01-31T08:09:22.764Z,19.57
2019-01-31T08:10:22.753Z,22.31
2019-01-31T08:11:22.733Z,22.69
2019-01-31T08:12:22.725Z,22.50
2019-01-31T08:13:22.710Z,17.58
2019-01-31T08:14:22.691Z,16.36
2019-01-31T08:15:22.677Z,17.21
2019-01-31T08:16:22.664Z,22.03
2019-01-31T08:17:22.648Z,20.70
2019-01-31T08:18:22.640Z,19.57
2019-01-31T08:19:22.626Z,20.89
2019-01-31T08:20:22.612Z,22.69
2019-01-31T08:21:22.592Z,21.84
2019-01-31T08:22:22.585Z,26.76
2019-01-31T08:23:22.568Z,34.04
2019-01-31T08:24:22.555Z,29.88
2019-01-31T08:25:22.541Z,23.73
2019-01-31T08:26:22.527Z,24.87
2019-01-31T08:27:22.512Z,35.55
2019-01-31T08:28:22.499Z,36.68
2019-01-31T08:29:22.483Z,31.77
2019-01-31T08:30:22.473Z,30.26
2019-01-31T08:31:22.461Z,40.28
2019-01-31T08:32:22.454Z,41.89
2019-01-31T08:33:22.433Z,35.46
2019-01-31T08:34:22.423Z,34.13
2019-01-31T08:35:22.408Z,29.79
2019-01-31T08:36:22.398Z,29.12
2019-01-31T08:37:24.573Z,35.08
2019-01-31T08:38:22.367Z,44.53
2019-01-31T08:39:22.351Z,49.83
2019-01-31T08:40:22.342Z,39.52
2019-01-31T08:41:22.320Z,44.06
2019-01-31T08:42:22.306Z,41.89
2019-01-31T08:43:22.303Z,49.83
2019-01-31T08:44:22.288Z,39.05
2019-01-31T08:45:22.272Z,40.56
2019-01-31T08:46:22.260Z,41.41
2019-01-31T08:47:22.248Z,54.18
2019-01-31T08:48:22.226Z,55.98
2019-01-31T08:49:22.222Z,53.61
2019-01-31T08:50:22.208Z,48.60
2019-01-31T08:51:22.193Z,40.75
2019-01-31T08:52:22.186Z,34.70
2019-01-31T08:53:22.166Z,31.39
2019-01-31T08:54:22.154Z,36.40
2019-01-31T08:55:22.162Z,38.86
2019-01-31T08:56:22.129Z,44.15
2019-01-31T08:57:22.112Z,41.60
2019-01-31T08:58:22.102Z,35.74
2019-01-31T08:59:22.157Z,38.10
2019-01-31T09:00:22.072Z,35.36
2019-01-31T09:01:22.117Z,33.18
2019-01-31T09:02:22.054Z,34.51
2019-01-31T09:03:22.038Z,45.67
2019-01-31T09:04:22.024Z,37.54
2019-01-31T09:05:22.006Z,30.35
2019-01-31T09:06:21.994Z,33.85
2019-01-31T09:07:21.983Z,33.09
2019-01-31T09:08:21.968Z,39.71
2019-01-31T09:09:21.966Z,37.06
2019-01-31T09:10:21.974Z,30.54
2019-01-31T09:11:21.982Z,29.88
2019-01-31T09:12:21.916Z,35.64
2019-01-31T09:13:21.901Z,37.82
2019-01-31T09:14:21.918Z,37.92
2019-01-31T09:15:21.868Z,40.09
2019-01-31T09:16:21.856Z,43.96
2019-01-31T09:17:21.849Z,37.82
2019-01-31T09:18:21.835Z,41.70
2019-01-31T09:19:21.823Z,37.82
2019-01-31T09:20:21.810Z,36.78
2019-01-31T09:21:21.795Z,31.20
2019-01-31T09:22:21.783Z,34.04
2019-01-31T09:23:21.772Z,39.52
2019-01-31T09:24:21.757Z,37.16
2019-01-31T09:25:21.745Z,33.09
2019-01-31T09:26:21.737Z,37.35
2019-01-31T09:27:21.762Z,33.66
2019-01-31T09:28:21.699Z,34.42
2019-01-31T09:29:21.686Z,37.25
2019-01-31T09:30:21.682Z,45.48
2019-01-31T09:31:21.678Z,41.70
2019-01-31T09:32:21.650Z,36.40
2019-01-31T09:33:21.637Z,40.84
2019-01-31T09:34:21.626Z,40.56
2019-01-31T09:35:21.662Z,35.46
2019-01-31T09:36:21.596Z,34.80
2019-01-31T09:37:21.580Z,36.02
2019-01-31T09:38:21.571Z,34.04
2019-01-31T09:39:21.558Z,37.35
2019-01-31T09:40:21.544Z,41.13
2019-01-31T09:41:21.529Z,43.02
2019-01-31T09:42:26.764Z,38.48
2019-01-31T09:43:21.506Z,38.39
2019-01-31T09:44:21.486Z,41.03
2019-01-31T09:45:21.482Z,38.86
2019-01-31T09:46:21.464Z,37.82
2019-01-31T09:47:21.452Z,42.10
2019-01-31T09:48:21.439Z,42.95
2019-01-31T09:49:21.428Z,37.84
2019-01-31T09:50:21.414Z,40.68
2019-01-31T09:51:21.401Z,39.45
2019-01-31T09:52:21.382Z,37.84
2019-01-31T09:53:21.376Z,33.11
2019-01-31T09:54:21.359Z,37.65
2019-01-31T09:55:21.349Z,37.84
2019-01-31T09:56:21.331Z,37.27
2019-01-31T09:57:21.316Z,34.44
2019-01-31T09:58:21.312Z,33.58
2019-01-31T09:59:21.313Z,32.07
2019-01-31T10:00:27.542Z,31.79
2019-01-31T10:01:21.325Z,33.58
2019-01-31T10:02:21.367Z,32.82
2019-01-31T10:03:21.254Z,31.31
2019-01-31T10:04:21.235Z,43.33
2019-01-31T10:05:21.217Z,44.27
2019-01-31T10:06:21.212Z,48.63
2019-01-31T10:07:21.193Z,43.90
2019-01-31T10:08:21.178Z,37.46
2019-01-31T10:09:21.170Z,35.76
2019-01-31T10:10:21.311Z,34.91
2019-01-31T10:11:21.138Z,33.39
2019-01-31T10:12:23.411Z,31.12
2019-01-31T10:13:21.116Z,29.14
2019-01-31T10:14:21.188Z,29.42
2019-01-31T10:15:21.113Z,29.80
2019-01-31T10:16:21.090Z,41.44
2019-01-31T10:17:21.060Z,43.14
2019-01-31T10:18:21.102Z,44.72
2019-01-31T10:19:23.231Z,43.30
2019-01-31T10:20:21.092Z,40.47
2019-01-31T10:21:21.045Z,38.29
2019-01-31T10:22:21.036Z,43.21
2019-01-31T10:23:21.033Z,42.93
2019-01-31T10:24:21.025Z,43.12
2019-01-31T10:25:20.956Z,44.15
2019-01-31T10:26:20.955Z,42.27
2019-01-31T10:27:20.947Z,40.84
2019-01-31T10:28:20.998Z,39.90
2019-01-31T10:29:20.912Z,39.33
2019-01-31T10:30:20.948Z,39.90
2019-01-31T10:31:20.881Z,38.20
2019-01-31T10:32:20.869Z,39.24
2019-01-31T10:33:20.853Z,35.17
2019-01-31T10:34:22.360Z,34.70
2019-01-31T10:35:20.832Z,35.55
2019-01-31T10:36:20.813Z,34.80
2019-01-31T10:37:20.805Z,34.42
2019-01-31T10:38:20.790Z,34.13
2019-01-31T10:39:20.775Z,33.56
2019-01-31T10:40:20.763Z,33.09
2019-01-31T10:41:20.760Z,32.90
2019-01-31T10:42:20.738Z,32.81
2019-01-31T10:43:20.726Z,31.29
2019-01-31T10:44:20.712Z,30.54
2019-01-31T10:45:22.806Z,31.86
2019-01-31T10:46:20.689Z,30.54
2019-01-31T10:47:20.670Z,30.36
2019-01-31T10:48:20.659Z,30.46
2019-01-31T10:49:20.644Z,30.36
2019-01-31T10:50:20.633Z,32.07
2019-01-31T10:51:20.620Z,30.91
2019-01-31T10:52:20.607Z,30.73
2019-01-31T10:53:20.589Z,30.54
2019-01-31T10:54:20.598Z,29.60
2019-01-31T10:55:20.569Z,29.97
2019-01-31T10:56:20.558Z,28.85
2019-01-31T10:57:20.542Z,27.81
2019-01-31T10:58:20.534Z,27.91
2019-01-31T10:59:20.513Z,27.15
2019-01-31T11:00:20.502Z,27.34
2019-01-31T11:01:20.487Z,27.15
2019-01-31T11:02:20.479Z,28.00
2019-01-31T11:03:20.460Z,27.15
2019-01-31T11:04:20.451Z,26.49
2019-01-31T11:05:20.432Z,26.68
2019-01-31T11:06:20.438Z,26.68
2019-01-31T11:07:20.410Z,25.73
2019-01-31T11:08:20.401Z,24.69
2019-01-31T11:09:20.387Z,24.60
2019-01-31T11:10:20.381Z,23.84
2019-01-31T11:11:20.366Z,22.61
2019-01-31T11:12:20.344Z,23.46
2019-01-31T11:13:20.339Z,23.84
2019-01-31T11:14:20.316Z,23.93
2019-01-31T11:15:20.308Z,25.54
2019-01-31T11:16:20.299Z,27.06
2019-01-31T11:17:20.281Z,25.82
2019-01-31T11:18:20.270Z,24.79
2019-01-31T11:19:20.252Z,28.57
2019-01-31T11:20:20.243Z,30.46
2019-01-31T11:21:20.279Z,30.55
2019-01-31T11:22:20.215Z,29.90
2019-01-31T11:23:20.209Z,30.46
2019-01-31T11:24:20.195Z,29.80
2019-01-31T11:25:20.180Z,29.90
2019-01-31T11:26:20.173Z,29.33
2019-01-31T11:27:20.157Z,26.87
2019-01-31T11:28:20.149Z,27.15
2019-01-31T11:29:20.134Z,29.04
2019-01-31T11:30:20.120Z,28.57
2019-01-31T11:31:20.101Z,27.53
2019-01-31T11:32:20.091Z,26.39
2019-01-31T11:33:20.082Z,25.73
2019-01-31T11:34:20.071Z,24.88
2019-01-31T11:35:20.055Z,25.45
2019-01-31T11:36:20.038Z,26.39
2019-01-31T11:37:20.025Z,25.92
2019-01-31T11:38:20.017Z,28.09
2019-01-31T11:39:20.005Z,27.81
2019-01-31T11:40:19.987Z,25.82
2019-01-31T11:41:19.974Z,28.00
2019-01-31T11:42:19.963Z,29.80
2019-01-31T11:43:19.953Z,28.66
2019-01-31T11:44:19.939Z,29.80
2019-01-31T11:45:19.926Z,28.57
2019-01-31T11:46:19.916Z,27.53
2019-01-31T11:47:19.897Z,25.82
2019-01-31T11:48:19.890Z,23.93
2019-01-31T11:49:19.876Z,23.08
2019-01-31T11:50:19.863Z,23.08
2019-01-31T11:51:19.847Z,22.99
2019-01-31T11:52:19.836Z,25.54
2019-01-31T11:53:19.824Z,25.35
2019-01-31T11:54:19.807Z,23.84
2019-01-31T11:55:19.800Z,25.45
2019-01-31T11:56:19.781Z,25.82
2019-01-31T11:57:19.775Z,25.45
2019-01-31T11:58:19.760Z,25.07
2019-01-31T11:59:19.750Z,22.61
2019-01-31T12:00:19.733Z,23.93
2019-01-31T12:01:19.719Z,24.22
2019-01-31T12:02:19.711Z,24.69
2019-01-31T12:03:19.701Z,23.84
2019-01-31T12:04:19.682Z,22.33
2019-01-31T12:05:19.688Z,23.08
2019-01-31T12:06:19.671Z,22.71
2019-01-31T12:07:19.680Z,22.42
2019-01-31T12:08:19.632Z,23.08
2019-01-31T12:09:19.652Z,22.42
2019-01-31T12:10:19.605Z,21.76
2019-01-31T12:11:19.599Z,21.09
2019-01-31T12:12:19.700Z,22.04
2019-01-31T12:13:23.463Z,22.04
2019-01-31T12:14:19.563Z,22.04
2019-01-31T12:15:19.588Z,22.24
2019-01-31T12:16:19.570Z,22.33
2019-01-31T12:17:19.525Z,22.90
2019-01-31T12:18:19.532Z,28.39
2019-01-31T12:19:19.498Z,28.39
2019-01-31T12:20:19.488Z,29.34
2019-01-31T12:21:19.475Z,31.14
2019-01-31T12:22:19.459Z,31.23
2019-01-31T12:23:19.447Z,32.82
2019-01-31T12:24:19.435Z,32.64
2019-01-31T12:25:19.418Z,30.93
2019-01-31T12:26:19.413Z,30.36
2019-01-31T12:27:19.399Z,28.00
2019-01-31T12:28:19.385Z,29.52
2019-01-31T12:29:19.376Z,29.61
2019-01-31T12:30:19.363Z,28.19
2019-01-31T12:31:19.352Z,26.77
2019-01-31T12:32:19.335Z,26.68
2019-01-31T12:33:19.328Z,26.30
2019-01-31T12:34:19.313Z,28.38
2019-01-31T12:35:19.300Z,29.99
2019-01-31T12:36:19.297Z,28.66
2019-01-31T12:37:19.274Z,25.54
2019-01-31T12:38:19.265Z,27.44
2019-01-31T12:39:19.250Z,25.63
2019-01-31T12:40:19.239Z,25.63
2019-01-31T12:41:19.228Z,22.80
2019-01-31T12:42:19.218Z,23.84
2019-01-31T12:43:19.199Z,23.65
2019-01-31T12:44:19.188Z,24.98
2019-01-31T12:45:19.186Z,25.92
2019-01-31T12:46:19.166Z,25.63
2019-01-31T12:47:19.152Z,24.88
2019-01-31T12:48:19.143Z,23.18
2019-01-31T12:49:19.129Z,23.46
2019-01-31T12:50:19.148Z,22.80
2019-01-31T12:51:19.103Z,22.81
2019-01-31T12:52:19.090Z,22.43
2019-01-31T12:53:19.077Z,21.77
2019-01-31T12:54:19.071Z,25.46
2019-01-31T12:55:19.051Z,27.92
2019-01-31T12:56:19.046Z,31.69
2019-01-31T12:57:19.031Z,30.74
2019-01-31T12:58:19.018Z,27.83
2019-01-31T12:59:19.003Z,26.68